Latest Weather Observations for Combienbar

IDV60801

Issued at 12:05 pm EDT Thursday 27 November 2014 (issued every 30 minutes, with the page automatically refreshed every 10 minutes)

About weather observations | Map of weather stations | Latest weather observations for VIC | Other Formats
Station Details ID: 084143 Name: COMBIENBAR AWS Lat: -37.34 Lon: 149.02 Height: 640.0 m
Data from the previous 72 hours. | See also: Recent months at Combienbar
Date/Time
EDT
Temp
°C
App
Temp
°C
Dew
Point
Rel
Hum
%
Delta-T
°C
Wind Press
QNH
hPa
Press
MSL
hPa
Rain
since 9 am
mm
Dir
 
Spd
km/h
Gust
km/h
Spd
kts
Gust
kts
27/12:00pm 15.8 15.0 8.3 61 3.9 SSW 2 7 1 4 1024.3 1022.8 0.0
27/11:30am 14.9 14.1 8.2 64 3.5 SSW 2 6 1 3 1024.2 1022.7 0.0
27/11:00am 13.5 12.5 7.5 67 3.0 SSW 2 7 1 4 1024.2 1022.7 0.0
27/10:30am 12.8 11.7 6.8 67 3.0 SW 2 4 1 2 1024.6 1023.1 0.0
27/10:00am 12.3 11.7 7.2 71 2.5 CALM 0 4 0 2 1024.6 1023.1 0.0
27/09:30am 10.9 10.1 6.5 74 2.1 CALM 0 6 0 3 1024.6 1023.1 0.0
27/09:00am 11.3 10.1 6.6 73 2.3 SW 2 4 1 2 1024.8 1023.3 0.0
27/08:30am 10.1 9.3 6.3 77 1.8 CALM 0 6 0 3 1024.7 1023.2 0.0
27/08:00am 9.1 8.3 6.5 84 1.2 CALM 0 0 0 0 1024.4 1022.9 0.0
27/07:30am 8.5 7.7 6.6 88 0.9 CALM 0 0 0 0 1024.1 1022.6 0.0
27/07:00am 8.0 7.2 6.3 89 0.8 CALM 0 0 0 0 1023.7 1022.2 0.0
27/06:30am 7.6 6.7 6.2 91 0.7 CALM 0 0 0 0 1023.4 1021.9 0.0
27/06:00am 7.4 6.5 5.9 90 0.7 CALM 0 4 0 2 1023.2 1021.7 0.0
27/05:30am 7.9 7.2 6.8 93 0.5 CALM 0 4 0 2 1023.1 1021.5 0.0
27/05:00am 8.1 7.5 7.3 95 0.4 CALM 0 2 0 1 1022.6 1021.1 0.0
27/04:30am 8.2 7.6 7.4 95 0.4 CALM 0 2 0 1 1022.3 1020.8 0.0
27/04:00am 8.3 7.7 7.5 95 0.4 CALM 0 2 0 1 1022.2 1020.7 0.0
27/03:30am 8.6 7.7 7.8 95 0.4 SSW 2 4 1 2 1022.3 1020.8 0.0
27/03:00am 8.7 8.2 7.9 95 0.4 CALM 0 0 0 0 1022.3 1020.8 0.0
27/02:30am 8.8 8.4 8.2 96 0.3 CALM 0 4 0 2 1022.5 1021.0 0.0
27/02:00am 9.0 8.6 8.4 96 0.3 CALM 0 4 0 2 1022.6 1021.1 0.0
27/01:30am 9.2 8.9 8.6 96 0.3 CALM 0 4 0 2 1022.7 1021.2 0.0
27/01:00am 9.5 9.3 8.9 96 0.3 CALM 0 4 0 2 1022.9 1021.3 0.0
27/12:30am 9.8 9.2 9.0 95 0.4 SSW 2 6 1 3 1023.1 1021.5 0.0
27/12:00am 10.0 9.5 9.2 95 0.4 SW 2 6 1 3 1023.1 1021.5 0.0
 
Date/Time
EDT
Temp
°C
App
Temp
°C
Dew
Point
Rel
Hum
%
Delta-T
°C
Wind Press
QNH
hPa
Press
MSL
hPa
Rain
since 9 am
mm
Dir
 
Spd
km/h
Gust
km/h
Spd
kts
Gust
kts
26/11:30pm 10.2 10.1 9.4 95 0.4 CALM 0 2 0 1 1023.1 1021.5 0.0
26/11:00pm 10.3 10.2 9.4 94 0.5 CALM 0 2 0 1 1023.1 1021.5 0.0
26/10:30pm 10.4 10.3 9.5 94 0.5 CALM 0 2 0 1 1023.0 1021.4 0.0
26/10:00pm 10.5 10.4 9.6 94 0.5 CALM 0 2 0 1 1023.0 1021.4 0.0
26/09:30pm 10.7 10.7 9.8 94 0.5 CALM 0 4 0 2 1022.7 1021.2 0.0
26/09:00pm 10.9 10.5 9.8 93 0.6 SSW 2 4 1 2 1022.4 1020.9 0.0
26/08:30pm 11.3 10.9 9.7 90 0.8 SW 2 6 1 3 1022.2 1020.7 0.0
26/08:00pm 11.6 11.1 9.3 86 1.2 SSW 2 6 1 3 1021.9 1020.4 0.0
26/07:30pm 12.0 11.1 9.2 83 1.5 SSW 4 7 2 4 1021.5 1019.9 0.0
26/07:00pm 13.1 12.2 9.2 77 2.0 SSW 4 6 2 3 1020.9 1019.4 0.0
26/06:30pm 13.1 12.5 9.0 76 2.1 SSW 2 7 1 4 1020.6 1019.1 0.0
26/06:00pm 13.3 12.9 9.9 80 1.8 SSW 2 6 1 3 1020.4 1018.9 0.0
26/05:30pm 14.1 13.4 9.9 76 2.2 SSW 4 7 2 4 1020.4 1018.9 0.0
26/05:00pm 14.6 14.0 10.4 76 2.3 SSW 4 7 2 4 1020.2 1018.6 0.0
26/04:30pm 16.7 16.2 10.8 68 3.3 SSW 4 7 2 4 1019.9 1018.3 0.0
26/04:00pm 17.9 18.0 11.5 66 3.6 S 2 6 1 3 1019.9 1018.3 0.0
26/03:30pm 15.5 15.3 10.5 72 2.7 SSW 2 7 1 4 1019.9 1018.3 0.0
26/03:00pm 16.3 15.8 10.8 70 3.0 SSW 4 7 2 4 1019.8 1018.2 0.0
26/02:30pm 18.4 18.2 11.9 66 3.7 SSW 4 7 2 4 1019.9 1018.3 0.0
26/02:00pm 18.1 17.9 11.7 66 3.6 SSW 4 9 2 5 1019.9 1018.3 0.0
26/01:30pm 17.4 17.1 11.4 68 3.4 SW 4 11 2 6 1019.9 1018.3 0.0
26/01:00pm 18.3 18.6 12.3 68 3.4 SSW 2 6 1 3 1019.9 1018.3 0.0
26/12:30pm 16.5 16.3 10.6 68 3.2 SSW 2 6 1 3 1020.1 1018.5 0.0
26/12:00pm 15.5 15.3 10.3 71 2.8 SSW 2 7 1 4 1020.1 1018.5 0.0
26/11:30am 15.7 16.1 11.3 75 2.4 CALM 0 4 0 2 1020.1 1018.5 0.0
26/11:00am 15.9 16.4 11.5 75 2.4 CALM 0 4 0 2 1020.0 1018.4 0.0
26/10:30am 14.3 14.3 9.9 75 2.4 CALM 0 6 0 3 1020.1 1018.5 0.0
26/10:00am 14.2 14.3 10.0 76 2.2 CALM 0 2 0 1 1020.1 1018.5 0.0
26/09:30am 12.3 12.1 9.0 80 1.7 CALM 0 2 0 1 1020.2 1018.6 0.0
26/09:00am 11.0 10.7 8.8 86 1.1 CALM 0 0 0 0 1020.3 1018.7 0.0
26/08:30am 10.8 10.4 8.4 85 1.2 CALM 0 0 0 0 1020.3 1018.7 0.0
26/08:00am 10.1 9.7 8.2 88 1.0 CALM 0 0 0 0 1020.2 1018.6 0.0
26/07:30am 9.5 9.1 8.4 93 0.6 CALM 0 0 0 0 1020.2 1018.6 0.0
26/07:00am 9.2 8.8 8.4 95 0.4 CALM 0 0 0 0 1020.0 1018.4 0.0
26/06:30am 9.1 8.8 8.5 96 0.3 CALM 0 0 0 0 1019.9 1018.3 0.0
26/06:00am 8.3 7.8 7.7 96 0.3 CALM 0 0 0 0 1019.9 1018.3 0.0
26/05:30am 8.5 8.0 7.9 96 0.3 CALM 0 0 0 0 1019.6 1018.0 0.0
26/05:00am 8.5 8.0 7.9 96 0.3 CALM 0 0 0 0 1019.4 1017.9 0.0
26/04:30am 8.6 8.1 8.0 96 0.3 CALM 0 0 0 0 1019.3 1017.8 0.0
26/04:00am 8.8 8.3 8.0 95 0.4 CALM 0 0 0 0 1019.2 1017.7 0.0
26/03:30am 8.9 8.4 7.8 93 0.5 CALM 0 0 0 0 1019.3 1017.8 0.0
26/03:00am 9.5 9.1 8.3 92 0.6 CALM 0 0 0 0 1019.7 1018.1 0.0
26/02:30am 9.8 9.4 8.4 91 0.7 CALM 0 0 0 0 1020.0 1018.4 0.0
26/02:00am 9.8 9.4 8.4 91 0.7 CALM 0 0 0 0 1020.2 1018.6 0.0
26/01:30am 9.8 9.4 8.2 90 0.8 CALM 0 0 0 0 1020.5 1019.0 0.0
26/01:00am 9.9 9.5 8.3 90 0.8 CALM 0 0 0 0 1020.8 1019.3 0.0
26/12:30am 9.9 9.6 8.5 91 0.7 CALM 0 0 0 0 1021.2 1019.6 0.0
26/12:00am 9.9 9.6 8.5 91 0.7 CALM 0 0 0 0 1021.4 1019.8 0.0
 
Date/Time
EDT
Temp
°C
App
Temp
°C
Dew
Point
Rel
Hum
%
Delta-T
°C
Wind Press
QNH
hPa
Press
MSL
hPa
Rain
since 9 am
mm
Dir
 
Spd
km/h
Gust
km/h
Spd
kts
Gust
kts
25/11:30pm 9.9 9.5 8.3 90 0.8 CALM 0 0 0 0 1021.5 1019.9 0.0
25/11:00pm 9.9 9.5 8.3 90 0.8 CALM 0 0 0 0 1021.5 1019.9 0.0
25/10:30pm 10.0 9.6 8.4 90 0.8 CALM 0 0 0 0 1021.6 1020.0 0.0
25/10:00pm 10.1 9.4 8.5 90 0.8 SSW 2 4 1 2 1021.4 1019.8 0.0
25/09:30pm 9.9 9.6 8.5 91 0.7 CALM 0 4 0 2 1021.0 1019.5 0.0
25/09:00pm 10.0 9.6 8.1 88 1.0 CALM 0 4 0 2 1020.4 1018.9 0.0
25/08:30pm 10.3 9.9 8.1 86 1.1 CALM 0 4 0 2 1019.9 1018.3 0.0
25/08:00pm 11.0 9.8 8.1 82 1.5 SW 4 6 2 3 1019.6 1018.0 0.0
25/07:30pm 11.9 11.1 8.2 78 1.9 SW 2 4 1 2 1019.1 1017.6 0.0
25/07:00pm 12.6 11.4 8.1 74 2.3 SSW 4 7 2 4 1018.7 1017.1 0.0
25/06:30pm 13.1 12.0 8.4 73 2.4 SSW 4 7 2 4 1018.3 1016.7 0.0
25/06:00pm 14.6 14.0 9.0 69 2.9 SSW 2 4 1 2 1018.1 1016.5 0.0
25/05:30pm 14.9 14.1 9.5 70 2.9 SSW 4 11 2 6 1017.7 1016.2 0.0
25/05:00pm 16.5 15.6 9.4 63 3.8 SSW 4 7 2 4 1017.6 1016.0 0.0
25/04:30pm 17.2 16.4 9.6 61 4.1 SSW 4 7 2 4 1017.4 1015.8 0.0
25/04:00pm 18.5 17.5 9.0 54 5.1 SSW 4 9 2 5 1017.2 1015.6 0.0
25/03:30pm 17.0 16.2 8.2 56 4.6 SW 2 6 1 3 1017.1 1015.5 0.0
25/03:00pm 18.7 17.3 7.2 47 6.0 SW 4 7 2 4 1017.1 1015.5 0.0
25/02:30pm 17.5 15.8 5.8 46 5.9 SW 4 13 2 7 1017.0 1015.4 0.0
25/02:00pm 17.1 15.2 7.7 54 4.9 SW 7 17 4 9 1017.0 1015.4 0.0
25/01:30pm 16.9 15.5 7.3 53 5.0 SSW 4 7 2 4 1017.1 1015.5 0.0
25/01:00pm 16.6 14.6 7.0 53 4.9 SSW 7 15 4 8 1016.9 1015.3 0.0
25/12:30pm 17.2 15.9 7.5 53 5.0 SW 4 13 2 7 1017.0 1015.4 0.0
25/12:00pm 15.2 13.1 6.0 54 4.6 SW 6 9 3 5 1017.0 1015.4 0.0
25/11:30am 15.0 13.5 6.8 58 4.1 SSW 4 11 2 6 1016.7 1015.1 0.0
25/11:00am 14.2 12.6 6.3 59 3.9 SW 4 9 2 5 1016.5 1014.9 0.0
25/10:30am 12.4 10.3 4.1 57 3.9 WSW 4 17 2 9 1016.3 1014.6 0.0
25/10:00am 12.5 10.8 6.1 65 3.1 SW 4 9 2 5 1015.8 1014.2 0.0
25/09:30am 11.2 8.8 4.2 62 3.3 SW 6 11 3 6 1015.6 1014.0 0.0
25/09:00am 10.6 7.8 3.4 61 3.3 SW 7 17 4 9 1015.2 1013.6 14.4
25/08:30am 10.0 6.5 3.3 63 3.0 SW 11 20 6 11 1014.9 1013.2 14.4
25/08:00am 9.4 6.2 3.2 65 2.8 SW 9 26 5 14 1014.6 1012.9 14.4
25/07:30am 8.8 6.3 3.6 70 2.3 SW 6 11 3 6 1014.2 1012.6 14.4
25/07:00am 7.9 5.9 4.5 79 1.5 SW 4 6 2 3 1014.2 1012.6 14.4
25/06:30am 7.6 5.2 4.4 80 1.5 SW 6 9 3 5 1013.6 1012.0 14.4
25/06:00am 7.7 5.2 5.0 83 1.2 SW 7 13 4 7 1013.0 1011.3 14.4
25/05:30am 7.9 5.6 5.7 86 1.0 SW 7 13 4 7 1012.6 1011.0 14.4
25/05:00am 7.7 5.8 6.8 94 0.4 SSW 6 11 3 6 1012.2 1010.6 14.4
25/04:30am 7.9 6.0 6.8 93 0.5 SW 6 13 3 7 1011.8 1010.1 14.2
25/04:00am 8.0 6.0 7.1 94 0.4 SSW 7 17 4 9 1011.3 1009.6 14.2
25/03:30am 8.2 5.8 7.0 92 0.6 SW 9 22 5 12 1011.2 1009.5 14.2
25/03:00am 7.9 5.9 7.1 95 0.4 SW 7 17 4 9 1011.3 1009.6 14.2
25/02:30am 8.5 7.3 8.1 97 0.2 SW 4 9 2 5 1011.2 1009.5 14.2
25/02:00am 8.9 6.8 8.3 96 0.3 SSW 9 26 5 14 1011.0 1009.4 14.0
25/01:30am 10.6 9.5 9.8 95 0.4 SSW 6 15 3 8 1010.4 1008.7 13.8
25/01:00am 11.3 10.4 10.5 95 0.4 WSW 6 13 3 7 1010.6 1008.9 13.0
25/12:30am 11.7 11.2 10.9 95 0.4 SSW 4 20 2 11 1010.8 1009.2 13.0
25/12:00am 12.0 11.1 11.4 96 0.3 WSW 7 15 4 8 1010.6 1008.9 13.0
 
Date/Time
EDT
Temp
°C
App
Temp
°C
Dew
Point
Rel
Hum
%
Delta-T
°C
Wind Press
QNH
hPa
Press
MSL
hPa
Rain
since 9 am
mm
Dir
 
Spd
km/h
Gust
km/h
Spd
kts
Gust
kts
24/11:30pm 12.9 11.9 12.3 96 0.3 SW 9 28 5 15 1010.4 1008.7 13.0
24/11:00pm 15.2 16.3 14.6 96 0.4 SW 2 6 1 3 1010.5 1008.8 11.8
24/10:30pm 15.1 15.2 14.0 93 0.6 SSW 6 20 3 11 1009.3 1007.6 11.8
24/10:00pm 16.2 15.4 14.0 87 1.3 W 11 30 6 16 1009.8 1008.1 10.2
24/09:30pm 15.9 15.6 14.3 90 0.9 WSW 9 33 5 18 1009.2 1007.5 8.4
24/09:00pm 16.2 15.7 13.9 86 1.3 W 9 20 5 11 1009.0 1007.3 5.8
24/08:30pm 17.7 17.9 13.2 75 2.6 WNW 4 15 2 8 1008.4 1006.7 4.0
24/08:00pm 18.1 18.3 13.2 73 2.9 WNW 4 15 2 8 1008.2 1006.5 3.8
24/07:30pm 18.1 19.0 15.2 83 1.7 WSW 4 15 2 8 1009.2 1007.5 3.8
24/07:00pm 19.2 21.5 16.8 86 1.5 CALM 0 0 0 0 1008.5 1006.8 3.2
24/06:30pm 20.1 22.5 16.9 82 2.0 CALM 0 2 0 1 1008.4 1006.7 3.2
24/06:00pm 20.0 20.6 15.8 77 2.6 N 7 17 4 9 1008.1 1006.3 3.2
24/05:30pm 19.8 21.8 17.9 89 1.2 NNE 4 7 2 4 1007.9 1006.1 3.2
24/05:00pm 19.5 21.6 17.1 86 1.5 E 2 4 1 2 1008.7 1007.0 3.2
24/04:30pm 18.5 20.9 17.0 91 0.9 CALM 0 4 0 2 1008.7 1007.0 3.2
24/04:00pm 18.0 19.5 16.7 92 0.8 NNE 4 7 2 4 1009.4 1007.7 3.2
24/03:30pm 18.1 18.9 14.8 81 2.0 NNE 4 11 2 6 1010.1 1008.4 2.4
24/03:00pm 18.3 18.4 14.4 78 2.3 NNW 7 15 4 8 1010.7 1009.0 2.2
24/02:30pm 19.2 19.5 15.1 77 2.5 NW 7 15 4 8 1011.4 1009.7 1.2
24/02:00pm 19.1 19.4 15.0 77 2.5 NNW 7 19 4 10 1011.0 1009.4 0.6
24/01:30pm 20.6 21.3 14.5 68 3.7 NNE 4 13 2 7 1011.2 1009.5 0.0
24/01:00pm 21.4 21.2 13.6 61 4.6 N 7 20 4 11 1011.3 1009.6 0.0
24/12:30pm 22.3 23.3 14.2 60 4.9 N 2 9 1 5 1011.2 1009.5 0.0

Other Formats:

Comma delimited format used in spreadsheet applications
http://www.bom.gov.au/fwo/IDV60801/IDV60801.94914.axf

JavaScript Object Notation format (JSON) in row-major order
http://www.bom.gov.au/fwo/IDV60801/IDV60801.94914.json